createdAt,value
2018-07-30T00:00:39.762Z,22.1
2018-07-30T00:01:41.063Z,22.1
2018-07-30T00:02:42.378Z,22.1
2018-07-30T00:03:43.699Z,22.1
2018-07-30T00:04:45.015Z,22.1
2018-07-30T00:05:46.324Z,22.0
2018-07-30T00:06:47.629Z,22.1
2018-07-30T00:07:48.953Z,22.1
2018-07-30T00:08:50.268Z,22.0
2018-07-30T00:09:51.584Z,22.1
2018-07-30T00:10:52.899Z,22.1
2018-07-30T00:11:54.218Z,22.1
2018-07-30T00:12:55.538Z,22.1
2018-07-30T00:13:56.848Z,22.1
2018-07-30T00:14:58.162Z,22.0
2018-07-30T00:15:59.478Z,22.0
2018-07-30T00:17:00.798Z,22.0
2018-07-30T00:18:02.107Z,21.9
2018-07-30T00:19:03.412Z,22.0
2018-07-30T00:20:04.722Z,22.0
2018-07-30T00:21:06.042Z,22.0
2018-07-30T00:22:07.359Z,22.0
2018-07-30T00:23:08.673Z,22.0
2018-07-30T00:24:09.995Z,21.9
2018-07-30T00:25:11.309Z,21.9
2018-07-30T00:26:12.611Z,22.0
2018-07-30T00:27:13.939Z,22.0
2018-07-30T00:28:15.252Z,21.9
2018-07-30T00:29:16.573Z,21.9
2018-07-30T00:30:17.895Z,21.9
2018-07-30T00:31:19.235Z,21.9
2018-07-30T00:32:20.517Z,22.0
2018-07-30T00:33:21.848Z,21.9
2018-07-30T00:34:23.158Z,21.9
2018-07-30T00:35:24.469Z,21.9
2018-07-30T00:36:25.782Z,21.9
2018-07-30T00:37:27.127Z,21.9
2018-07-30T00:38:28.454Z,21.8
2018-07-30T00:39:29.789Z,21.9
2018-07-30T00:40:31.099Z,21.9
2018-07-30T00:41:32.442Z,21.9
2018-07-30T00:42:33.749Z,21.9
2018-07-30T00:43:35.065Z,21.8
2018-07-30T00:44:36.386Z,21.8
2018-07-30T00:45:37.698Z,21.8
2018-07-30T00:46:39.019Z,21.8
2018-07-30T00:47:40.334Z,21.8
2018-07-30T00:48:41.638Z,21.8
2018-07-30T00:49:42.955Z,21.8
2018-07-30T00:50:44.266Z,21.8
2018-07-30T00:51:45.592Z,21.8
2018-07-30T00:52:46.900Z,21.8
2018-07-30T00:53:48.214Z,21.8
2018-07-30T00:54:49.550Z,21.7
2018-07-30T00:55:50.843Z,21.7
2018-07-30T00:56:52.194Z,21.8
2018-07-30T00:57:53.431Z,21.7
2018-07-30T00:58:54.747Z,21.8
2018-07-30T00:59:56.063Z,21.8
2018-07-30T01:00:57.399Z,21.7
2018-07-30T01:01:58.709Z,21.8
2018-07-30T01:03:00.020Z,21.6
2018-07-30T01:04:01.327Z,21.6
2018-07-30T01:05:02.638Z,21.7
2018-07-30T01:06:03.962Z,21.7
2018-07-30T01:07:05.278Z,21.7
2018-07-30T01:08:06.589Z,21.6
2018-07-30T01:09:07.902Z,21.6
2018-07-30T01:10:09.207Z,21.7
2018-07-30T01:11:10.519Z,21.6
2018-07-30T01:12:11.838Z,21.7
2018-07-30T01:13:13.147Z,21.7
2018-07-30T01:14:14.497Z,21.7
2018-07-30T01:15:15.797Z,21.7
2018-07-30T01:16:17.107Z,21.5
2018-07-30T01:17:19.347Z,21.6
2018-07-30T01:18:20.672Z,21.6
2018-07-30T01:19:21.982Z,21.6
2018-07-30T01:20:23.302Z,21.5
2018-07-30T01:21:24.627Z,21.5
2018-07-30T01:22:25.944Z,21.5
2018-07-30T01:23:27.262Z,21.5
2018-07-30T01:24:28.573Z,21.5
2018-07-30T01:25:29.884Z,21.4
2018-07-30T01:26:31.192Z,21.4
2018-07-30T01:27:32.513Z,21.5
2018-07-30T01:28:33.842Z,21.4
2018-07-30T01:29:35.143Z,21.3
2018-07-30T01:30:36.462Z,21.5
2018-07-30T01:31:37.783Z,21.4
2018-07-30T01:32:39.089Z,21.4
2018-07-30T01:33:40.404Z,21.3
2018-07-30T01:34:41.722Z,21.4
2018-07-30T01:35:43.028Z,21.4
2018-07-30T01:36:44.349Z,21.4
2018-07-30T01:37:45.659Z,21.3
2018-07-30T01:38:46.993Z,21.3
2018-07-30T01:39:48.307Z,21.3
2018-07-30T01:40:49.619Z,21.3
2018-07-30T01:41:50.933Z,21.2
2018-07-30T01:42:52.243Z,21.1
2018-07-30T01:43:53.562Z,21.2
2018-07-30T01:44:54.882Z,21.1
2018-07-30T01:45:56.198Z,21.1
2018-07-30T01:46:57.517Z,21.1
2018-07-30T01:47:58.823Z,21.1
2018-07-30T01:49:00.185Z,21.1
2018-07-30T01:50:01.499Z,21.0
2018-07-30T01:51:02.813Z,21.1
2018-07-30T01:52:04.118Z,21.1
2018-07-30T01:53:05.437Z,21.1
2018-07-30T01:54:06.748Z,21.1
2018-07-30T01:55:08.059Z,21.1
2018-07-30T01:56:09.370Z,21.1
2018-07-30T01:57:10.685Z,21.0
2018-07-30T01:58:12.016Z,21.0
2018-07-30T01:59:13.319Z,21.0
2018-07-30T02:00:14.635Z,20.9
2018-07-30T02:01:15.947Z,20.9
2018-07-30T02:02:17.261Z,21.0
2018-07-30T02:03:18.563Z,20.9
2018-07-30T02:04:19.879Z,20.9
2018-07-30T02:05:21.200Z,21.0
2018-07-30T02:06:22.528Z,20.9
2018-07-30T02:07:23.835Z,20.8
2018-07-30T02:08:25.152Z,20.9
2018-07-30T02:09:26.493Z,20.9
2018-07-30T02:10:27.804Z,20.8
2018-07-30T02:11:29.115Z,20.8
2018-07-30T02:12:30.428Z,20.8
2018-07-30T02:13:31.738Z,20.8
2018-07-30T02:14:33.040Z,20.7
2018-07-30T02:15:34.354Z,20.7
2018-07-30T02:16:35.672Z,20.7
2018-07-30T02:17:36.980Z,20.7
2018-07-30T02:18:38.300Z,20.7
2018-07-30T02:19:39.613Z,20.6
2018-07-30T02:20:40.919Z,20.7
2018-07-30T02:21:42.234Z,20.6
2018-07-30T02:22:43.543Z,20.6
2018-07-30T02:23:44.845Z,20.6
2018-07-30T02:24:46.159Z,20.6
2018-07-30T02:25:47.475Z,20.5
2018-07-30T02:26:48.790Z,20.6
2018-07-30T02:27:50.096Z,20.6
2018-07-30T02:28:51.408Z,20.6
2018-07-30T02:29:52.724Z,20.6
2018-07-30T02:30:54.038Z,20.5
2018-07-30T02:31:55.349Z,20.5
2018-07-30T02:32:56.658Z,20.5
2018-07-30T02:33:57.976Z,20.5
2018-07-30T02:34:59.296Z,20.5
2018-07-30T02:36:00.600Z,20.5
2018-07-30T02:37:01.910Z,20.4
2018-07-30T02:38:03.223Z,20.5
2018-07-30T02:39:04.543Z,20.5
2018-07-30T02:40:05.861Z,20.5
2018-07-30T02:41:07.174Z,20.4
2018-07-30T02:42:08.480Z,20.4
2018-07-30T02:43:09.786Z,20.4
2018-07-30T02:44:11.115Z,20.4
2018-07-30T02:45:12.431Z,20.4
2018-07-30T02:46:13.739Z,20.4
2018-07-30T02:47:15.055Z,20.4
2018-07-30T02:48:16.369Z,20.3
2018-07-30T02:49:17.706Z,20.4
2018-07-30T02:50:19.008Z,20.2
2018-07-30T02:51:20.316Z,20.3
2018-07-30T02:52:21.629Z,20.3
2018-07-30T02:53:22.951Z,20.3
2018-07-30T02:54:24.254Z,20.2
2018-07-30T02:55:25.574Z,20.3
2018-07-30T02:56:26.884Z,20.2
2018-07-30T02:57:28.211Z,20.2
2018-07-30T02:58:29.500Z,20.2
2018-07-30T02:59:30.819Z,20.3
2018-07-30T03:00:32.134Z,20.2
2018-07-30T03:01:33.448Z,20.2
2018-07-30T03:02:34.764Z,20.2
2018-07-30T03:03:36.076Z,20.3
2018-07-30T03:04:37.390Z,20.3
2018-07-30T03:05:38.704Z,20.2
2018-07-30T03:06:40.022Z,20.2
2018-07-30T03:07:41.321Z,20.2
2018-07-30T03:08:42.634Z,20.2
2018-07-30T03:09:43.955Z,20.2
2018-07-30T03:10:45.258Z,20.2
2018-07-30T03:11:46.566Z,20.1
2018-07-30T03:12:47.881Z,20.1
2018-07-30T03:13:49.186Z,20.1
2018-07-30T03:14:50.493Z,20.2
2018-07-30T03:15:51.806Z,20.2
2018-07-30T03:16:53.125Z,20.1
2018-07-30T03:17:54.430Z,20.2
2018-07-30T03:18:55.745Z,20.1
2018-07-30T03:19:57.056Z,20.1
2018-07-30T03:20:58.369Z,20.1
2018-07-30T03:21:59.676Z,20.1
2018-07-30T03:23:00.981Z,20.1
2018-07-30T03:24:02.302Z,20.1
2018-07-30T03:25:03.611Z,20.1
2018-07-30T03:26:04.916Z,20.1
2018-07-30T03:27:06.191Z,20.1
2018-07-30T03:28:07.502Z,20.0
2018-07-30T03:29:08.811Z,20.0
2018-07-30T03:30:10.121Z,20.0
2018-07-30T03:31:11.448Z,20.0
2018-07-30T03:32:12.756Z,20.0
2018-07-30T03:33:14.074Z,19.9
2018-07-30T03:34:15.386Z,19.9
2018-07-30T03:35:16.697Z,20.0
2018-07-30T03:36:18.014Z,19.8
2018-07-30T03:37:19.324Z,19.9
2018-07-30T03:38:20.646Z,19.8
2018-07-30T03:39:21.964Z,19.9
2018-07-30T03:40:23.269Z,19.9
2018-07-30T03:41:24.586Z,19.9
2018-07-30T03:42:25.896Z,19.8
2018-07-30T03:43:27.225Z,19.9
2018-07-30T03:44:28.546Z,19.7
2018-07-30T03:45:29.857Z,19.8
2018-07-30T03:46:31.166Z,19.8
2018-07-30T03:47:32.481Z,19.7
2018-07-30T03:48:33.797Z,19.7
2018-07-30T03:49:35.110Z,19.7
2018-07-30T03:50:36.421Z,19.7
2018-07-30T03:51:37.737Z,19.7
2018-07-30T03:52:39.056Z,19.7
2018-07-30T03:53:40.380Z,19.7
2018-07-30T03:54:41.753Z,19.7
2018-07-30T03:55:42.990Z,19.8
2018-07-30T03:56:44.296Z,19.7
2018-07-30T03:57:45.606Z,19.7
2018-07-30T03:58:46.927Z,19.7
2018-07-30T03:59:48.240Z,19.7
2018-07-30T04:00:49.561Z,19.7
2018-07-30T04:01:50.877Z,19.8
2018-07-30T04:02:52.187Z,19.7
2018-07-30T04:03:53.497Z,19.7
2018-07-30T04:04:54.816Z,19.8
2018-07-30T04:05:56.133Z,19.8
2018-07-30T04:06:57.457Z,19.8
2018-07-30T04:07:58.769Z,19.9
2018-07-30T04:09:00.087Z,19.9
2018-07-30T04:10:01.403Z,19.9
2018-07-30T04:11:02.716Z,19.9
2018-07-30T04:12:04.031Z,19.8
2018-07-30T04:13:05.360Z,19.9
2018-07-30T04:14:06.690Z,19.9
2018-07-30T04:15:07.992Z,19.9
2018-07-30T04:16:09.304Z,19.9
2018-07-30T04:17:10.631Z,19.9
2018-07-30T04:18:11.956Z,19.9
2018-07-30T04:19:13.266Z,19.8
2018-07-30T04:20:14.587Z,19.9
2018-07-30T04:21:15.915Z,19.9
2018-07-30T04:22:17.294Z,19.8
2018-07-30T04:23:18.511Z,19.8
2018-07-30T04:24:19.830Z,19.8
2018-07-30T04:25:21.153Z,19.9
2018-07-30T04:26:22.467Z,19.8
2018-07-30T04:27:23.785Z,19.8
2018-07-30T04:28:25.102Z,19.8
2018-07-30T04:29:26.432Z,19.9
2018-07-30T04:30:27.749Z,19.8
2018-07-30T04:31:29.072Z,19.8
2018-07-30T04:32:30.390Z,19.9
2018-07-30T04:33:31.705Z,19.8
2018-07-30T04:34:33.029Z,19.9
2018-07-30T04:35:34.344Z,19.8
2018-07-30T04:36:35.657Z,19.8
2018-07-30T04:37:36.994Z,19.8
2018-07-30T04:38:38.299Z,19.9
2018-07-30T04:39:39.634Z,19.8
2018-07-30T04:40:40.951Z,19.8
2018-07-30T04:41:42.269Z,19.9
2018-07-30T04:42:43.609Z,19.9
2018-07-30T04:43:44.926Z,19.9
2018-07-30T04:44:46.226Z,19.9
2018-07-30T04:45:47.554Z,20.0
2018-07-30T04:46:48.859Z,19.9
2018-07-30T04:47:50.174Z,19.9
2018-07-30T04:48:51.499Z,19.9
2018-07-30T04:49:52.816Z,19.9
2018-07-30T04:50:54.132Z,20.0
2018-07-30T04:51:55.449Z,19.9
2018-07-30T04:52:56.771Z,19.9
2018-07-30T04:53:58.089Z,20.0
2018-07-30T04:54:59.412Z,19.9
2018-07-30T04:56:00.738Z,20.0
2018-07-30T04:57:02.113Z,20.1
2018-07-30T04:58:03.372Z,20.0
2018-07-30T04:59:04.692Z,20.1
2018-07-30T05:00:06.002Z,20.1
2018-07-30T05:01:07.330Z,20.0
2018-07-30T05:02:08.645Z,20.1
2018-07-30T05:03:09.967Z,20.2
2018-07-30T05:04:11.280Z,20.2
2018-07-30T05:05:12.595Z,20.2
2018-07-30T05:06:13.907Z,20.2
2018-07-30T05:07:15.233Z,20.3
2018-07-30T05:08:16.563Z,20.3
2018-07-30T05:09:18.381Z,20.3
2018-07-30T05:10:19.696Z,20.3
2018-07-30T05:11:21.046Z,20.3
2018-07-30T05:12:22.323Z,20.3
2018-07-30T05:13:23.637Z,20.3
2018-07-30T05:14:24.958Z,20.4
2018-07-30T05:15:26.273Z,20.4
2018-07-30T05:16:27.588Z,20.4
2018-07-30T05:17:28.912Z,20.4
2018-07-30T05:18:30.241Z,20.4
2018-07-30T05:19:31.573Z,20.4
2018-07-30T05:20:32.876Z,20.4
2018-07-30T05:21:34.207Z,20.4
2018-07-30T05:22:35.522Z,20.4
2018-07-30T05:23:36.872Z,20.4
2018-07-30T05:24:38.197Z,20.4
2018-07-30T05:25:39.620Z,20.4
2018-07-30T05:26:40.807Z,20.5
2018-07-30T05:27:42.133Z,20.5
2018-07-30T05:28:43.474Z,20.5
2018-07-30T05:29:44.786Z,20.5
2018-07-30T05:30:46.106Z,20.5
2018-07-30T05:31:47.431Z,20.5
2018-07-30T05:32:48.747Z,20.5
2018-07-30T05:33:50.058Z,20.5
2018-07-30T05:34:51.391Z,20.5
2018-07-30T05:35:52.709Z,20.5
2018-07-30T05:36:54.023Z,20.6
2018-07-30T05:37:55.338Z,20.6
2018-07-30T05:38:56.662Z,20.6
2018-07-30T05:39:57.992Z,20.6
2018-07-30T05:40:59.304Z,20.7
2018-07-30T05:42:00.625Z,20.7
2018-07-30T05:43:01.947Z,20.6
2018-07-30T05:44:03.268Z,20.7
2018-07-30T05:45:04.593Z,20.7
2018-07-30T05:46:05.897Z,20.7
2018-07-30T05:47:07.223Z,20.8
2018-07-30T05:48:08.538Z,20.8
2018-07-30T05:49:09.863Z,21.0
2018-07-30T05:50:11.326Z,20.9
2018-07-30T05:51:12.542Z,20.9
2018-07-30T05:52:13.862Z,21.1
2018-07-30T05:53:15.185Z,21.0
2018-07-30T05:54:16.526Z,21.1
2018-07-30T05:55:17.830Z,21.1
2018-07-30T05:56:19.144Z,21.3
2018-07-30T05:57:20.463Z,21.3
2018-07-30T05:58:21.786Z,21.4
2018-07-30T05:59:23.161Z,21.5
2018-07-30T06:00:24.446Z,21.7
2018-07-30T06:01:25.782Z,21.9
2018-07-30T06:02:27.132Z,22.2
2018-07-30T06:03:28.452Z,22.3
2018-07-30T06:04:29.777Z,22.7
2018-07-30T06:05:31.193Z,22.9
2018-07-30T06:06:32.380Z,23.2
2018-07-30T06:07:33.702Z,23.4
2018-07-30T06:08:35.028Z,23.7
2018-07-30T06:09:36.385Z,23.9
2018-07-30T06:10:37.678Z,24.1
2018-07-30T06:11:38.992Z,24.2
2018-07-30T06:12:40.318Z,24.4
2018-07-30T06:13:41.639Z,24.4
2018-07-30T06:14:42.969Z,24.5
2018-07-30T06:15:44.301Z,24.6
2018-07-30T06:16:45.626Z,24.5
2018-07-30T06:17:46.951Z,24.3
2018-07-30T06:18:49.251Z,24.3
2018-07-30T06:19:50.578Z,24.3
2018-07-30T06:20:51.943Z,24.2
2018-07-30T06:21:53.230Z,24.2
2018-07-30T06:22:54.559Z,24.1
2018-07-30T06:23:55.894Z,24.1
2018-07-30T06:24:57.224Z,24.1
2018-07-30T06:25:58.542Z,24.1
2018-07-30T06:26:59.917Z,24.0
2018-07-30T06:28:01.209Z,24.0
2018-07-30T06:29:02.534Z,24.0
2018-07-30T06:30:03.869Z,24.0
2018-07-30T06:31:05.189Z,24.0
2018-07-30T06:32:06.517Z,24.1
2018-07-30T06:33:07.839Z,24.0
2018-07-30T06:34:09.167Z,23.9
2018-07-30T06:35:10.487Z,23.8
2018-07-30T06:36:11.822Z,23.7
2018-07-30T06:37:13.143Z,23.7
2018-07-30T06:38:14.467Z,23.7
2018-07-30T06:39:15.794Z,23.6
2018-07-30T06:40:17.117Z,23.6
2018-07-30T06:41:18.437Z,23.4
2018-07-30T06:42:19.774Z,23.4
2018-07-30T06:43:21.106Z,23.5
2018-07-30T06:44:22.426Z,23.8
2018-07-30T06:45:23.737Z,24.0
2018-07-30T06:46:25.078Z,24.3
2018-07-30T06:47:26.411Z,24.6
2018-07-30T06:48:27.753Z,24.9
2018-07-30T06:49:29.087Z,25.2
2018-07-30T06:50:30.431Z,25.4
2018-07-30T06:51:31.748Z,25.7
2018-07-30T06:52:33.073Z,25.9
2018-07-30T06:53:34.406Z,26.2
2018-07-30T06:54:35.723Z,26.3
2018-07-30T06:55:37.058Z,26.5
2018-07-30T06:56:38.398Z,26.7
2018-07-30T06:57:39.719Z,26.7
2018-07-30T06:58:41.108Z,26.9
2018-07-30T06:59:42.439Z,27.1
2018-07-30T07:00:43.764Z,27.2
2018-07-30T07:01:45.092Z,27.2
2018-07-30T07:02:46.422Z,27.3
2018-07-30T07:03:48.454Z,27.3
2018-07-30T07:04:49.794Z,27.4
2018-07-30T07:05:51.142Z,27.6
2018-07-30T07:06:52.462Z,27.6
2018-07-30T07:07:53.792Z,27.6
2018-07-30T07:08:55.119Z,27.8
2018-07-30T07:09:56.464Z,27.8
2018-07-30T07:10:57.854Z,27.6
2018-07-30T07:11:59.133Z,27.5
2018-07-30T07:13:00.454Z,27.6
2018-07-30T07:14:01.790Z,27.5
2018-07-30T07:15:03.117Z,27.5
2018-07-30T07:16:04.463Z,27.6
2018-07-30T07:17:05.794Z,27.6
2018-07-30T07:18:07.123Z,27.9
2018-07-30T07:19:08.467Z,28.0
2018-07-30T07:20:09.797Z,28.2
2018-07-30T07:21:11.172Z,28.4
2018-07-30T07:22:12.453Z,28.4
2018-07-30T07:23:13.783Z,28.4
2018-07-30T07:24:15.124Z,28.6
2018-07-30T07:25:16.457Z,28.6
2018-07-30T07:26:17.784Z,28.7
2018-07-30T07:27:19.124Z,28.8
2018-07-30T07:28:20.452Z,28.8
2018-07-30T07:29:21.787Z,28.8
2018-07-30T07:30:23.121Z,28.8
2018-07-30T07:31:24.459Z,28.9
2018-07-30T07:32:25.779Z,28.7
2018-07-30T07:33:27.121Z,28.8
2018-07-30T07:34:28.458Z,28.8
2018-07-30T07:35:29.804Z,28.9
2018-07-30T07:36:31.128Z,28.8
2018-07-30T07:37:32.491Z,28.8
2018-07-30T07:38:33.819Z,28.8
2018-07-30T07:39:35.159Z,28.9
2018-07-30T07:40:36.487Z,29.0
2018-07-30T07:41:37.828Z,29.1
2018-07-30T07:42:39.168Z,29.3
2018-07-30T07:43:40.495Z,29.4
2018-07-30T07:44:41.829Z,29.3
2018-07-30T07:45:43.165Z,29.4
2018-07-30T07:46:44.498Z,29.4
2018-07-30T07:47:45.834Z,29.2
2018-07-30T07:48:47.167Z,29.0
2018-07-30T07:49:48.497Z,29.0
2018-07-30T07:50:50.054Z,29.0
2018-07-30T07:51:51.178Z,29.0
2018-07-30T07:52:52.520Z,29.0
2018-07-30T07:53:53.854Z,29.1
2018-07-30T07:54:55.202Z,29.3
2018-07-30T07:55:56.533Z,29.5
2018-07-30T07:56:57.869Z,29.7
2018-07-30T07:57:59.196Z,29.9
2018-07-30T07:59:00.529Z,30.0
2018-07-30T08:00:01.883Z,30.0
2018-07-30T08:01:03.237Z,30.1
2018-07-30T08:02:04.577Z,30.2
2018-07-30T08:03:05.907Z,30.1
2018-07-30T08:04:07.260Z,30.2
2018-07-30T08:05:08.643Z,30.2
2018-07-30T08:06:09.970Z,30.1
2018-07-30T08:07:11.297Z,30.2
2018-07-30T08:08:12.648Z,30.3
2018-07-30T08:09:13.985Z,30.3
2018-07-30T08:10:15.318Z,30.5
2018-07-30T08:11:16.664Z,30.6
2018-07-30T08:12:18.002Z,30.7
2018-07-30T08:13:19.335Z,30.7
2018-07-30T08:14:20.680Z,30.8
2018-07-30T08:15:22.028Z,30.6
2018-07-30T08:16:23.489Z,30.7
2018-07-30T08:17:24.715Z,30.8
2018-07-30T08:18:26.039Z,30.9
2018-07-30T08:19:27.392Z,30.9
2018-07-30T08:20:28.734Z,31.0
2018-07-30T08:21:30.066Z,30.9
2018-07-30T08:22:31.404Z,31.1
2018-07-30T08:23:32.745Z,31.1
2018-07-30T08:24:34.082Z,31.2
2018-07-30T08:25:35.421Z,31.1
2018-07-30T08:26:36.773Z,31.1
2018-07-30T08:27:38.102Z,31.1
2018-07-30T08:28:39.447Z,31.2
2018-07-30T08:29:40.942Z,31.3
2018-07-30T08:30:42.294Z,31.4
2018-07-30T08:31:43.632Z,31.6
2018-07-30T08:32:44.963Z,31.7
2018-07-30T08:33:46.333Z,32.0
2018-07-30T08:34:47.669Z,32.0
2018-07-30T08:35:49.012Z,32.1
2018-07-30T08:36:50.408Z,32.2
2018-07-30T08:37:51.753Z,32.2
2018-07-30T08:38:53.086Z,32.2
2018-07-30T08:39:54.423Z,32.1
2018-07-30T08:40:55.777Z,32.1
2018-07-30T08:41:57.118Z,32.1
2018-07-30T08:42:58.455Z,32.0
2018-07-30T08:43:59.807Z,31.9
2018-07-30T08:45:01.142Z,31.8
2018-07-30T08:46:02.489Z,31.8
2018-07-30T08:47:03.828Z,31.9
2018-07-30T08:48:05.162Z,32.0
2018-07-30T08:49:06.504Z,31.9
2018-07-30T08:50:07.867Z,31.9
2018-07-30T08:51:09.198Z,31.9
2018-07-30T08:52:10.534Z,32.0
2018-07-30T08:53:11.879Z,31.9
2018-07-30T08:54:13.230Z,31.9
2018-07-30T08:55:14.569Z,31.9
2018-07-30T08:56:15.946Z,31.9
2018-07-30T08:57:17.259Z,31.9
2018-07-30T08:58:18.589Z,32.2
2018-07-30T08:59:19.944Z,32.3
2018-07-30T09:00:21.289Z,32.6
2018-07-30T09:01:22.619Z,32.7
2018-07-30T09:02:23.960Z,32.8
2018-07-30T09:03:25.322Z,32.8
2018-07-30T09:04:26.654Z,32.7
2018-07-30T09:05:27.994Z,32.7
2018-07-30T09:06:29.331Z,32.7
2018-07-30T09:07:30.678Z,32.8
2018-07-30T09:08:32.019Z,32.8
2018-07-30T09:09:33.360Z,32.6
2018-07-30T09:10:34.704Z,32.3
2018-07-30T09:11:36.060Z,32.3
2018-07-30T09:12:37.437Z,32.3
2018-07-30T09:13:38.692Z,32.3
2018-07-30T09:14:40.054Z,32.6
2018-07-30T09:15:41.389Z,32.5
2018-07-30T09:16:42.720Z,32.6
2018-07-30T09:17:44.064Z,32.7
2018-07-30T09:18:45.407Z,32.8
2018-07-30T09:19:46.748Z,32.7
2018-07-30T09:20:48.124Z,32.8
2018-07-30T09:21:49.462Z,32.8
2018-07-30T09:22:50.797Z,32.9
2018-07-30T09:23:52.143Z,32.9
2018-07-30T09:24:53.485Z,32.9
2018-07-30T09:25:54.828Z,33.2
2018-07-30T09:26:56.175Z,33.3
2018-07-30T09:27:57.522Z,33.3
2018-07-30T09:28:58.873Z,33.4
2018-07-30T09:30:00.222Z,33.4
2018-07-30T09:31:01.558Z,33.5
2018-07-30T09:32:02.915Z,33.6
2018-07-30T09:33:04.321Z,33.6
2018-07-30T09:34:05.594Z,33.6
2018-07-30T09:35:06.934Z,33.7
2018-07-30T09:36:08.274Z,33.7
2018-07-30T09:37:09.617Z,33.8
2018-07-30T09:38:10.962Z,33.7
2018-07-30T09:39:12.340Z,33.7
2018-07-30T09:40:13.638Z,33.8
2018-07-30T09:41:14.979Z,33.7
2018-07-30T09:42:16.324Z,33.7
2018-07-30T09:43:18.252Z,33.5
2018-07-30T09:44:19.593Z,33.6
2018-07-30T09:45:20.934Z,33.9
2018-07-30T09:46:22.290Z,33.8
2018-07-30T09:47:23.636Z,34.0
2018-07-30T09:48:24.973Z,34.0
2018-07-30T09:49:26.355Z,34.2
2018-07-30T09:50:27.915Z,34.2
2018-07-30T09:51:29.153Z,34.3
2018-07-30T09:52:30.494Z,34.3
2018-07-30T09:53:31.853Z,34.2
2018-07-30T09:54:33.187Z,34.2
2018-07-30T09:55:34.539Z,34.1
2018-07-30T09:56:35.905Z,34.1
2018-07-30T09:57:37.253Z,34.2
2018-07-30T09:58:38.608Z,34.2
2018-07-30T09:59:39.924Z,34.1
2018-07-30T10:00:41.282Z,34.2
2018-07-30T10:01:42.623Z,34.3
2018-07-30T10:02:43.955Z,34.3
2018-07-30T10:03:45.309Z,34.4
2018-07-30T10:04:46.645Z,34.4
2018-07-30T10:05:48.010Z,34.4
2018-07-30T10:06:49.350Z,34.3
2018-07-30T10:07:50.709Z,34.3
2018-07-30T10:08:52.059Z,34.4
2018-07-30T10:09:53.418Z,34.2
2018-07-30T10:10:54.770Z,34.2
2018-07-30T10:11:56.110Z,34.2
2018-07-30T10:12:57.454Z,34.3
2018-07-30T10:13:58.807Z,34.3
2018-07-30T10:15:00.155Z,34.4
2018-07-30T10:16:01.498Z,34.3
2018-07-30T10:17:02.854Z,34.3
2018-07-30T10:18:04.304Z,34.3
2018-07-30T10:19:05.530Z,34.4
2018-07-30T10:20:06.888Z,34.4
2018-07-30T10:21:08.239Z,34.4
2018-07-30T10:22:09.585Z,34.3
2018-07-30T10:23:10.934Z,34.3
2018-07-30T10:24:12.290Z,34.2
2018-07-30T10:25:13.632Z,34.3
2018-07-30T10:26:14.970Z,34.3
2018-07-30T10:27:16.336Z,34.4
2018-07-30T10:28:17.700Z,34.2
2018-07-30T10:29:19.045Z,34.2
2018-07-30T10:30:20.404Z,34.2
2018-07-30T10:31:21.736Z,34.2
2018-07-30T10:32:23.093Z,34.2
2018-07-30T10:33:24.445Z,34.1
2018-07-30T10:34:25.820Z,34.1
2018-07-30T10:35:27.128Z,34.0
2018-07-30T10:36:28.466Z,34.1
2018-07-30T10:37:29.830Z,34.3
2018-07-30T10:38:31.204Z,34.5
2018-07-30T10:39:32.544Z,34.6
2018-07-30T10:40:33.895Z,34.7
2018-07-30T10:41:35.248Z,34.8
2018-07-30T10:42:36.595Z,35.0
2018-07-30T10:43:37.934Z,35.0
2018-07-30T10:44:39.273Z,35.0
2018-07-30T10:45:40.629Z,34.9
2018-07-30T10:46:41.978Z,34.9
2018-07-30T10:47:43.330Z,34.8
2018-07-30T10:48:44.671Z,34.9
2018-07-30T10:49:46.012Z,34.9
2018-07-30T10:50:47.359Z,35.0
2018-07-30T10:51:48.726Z,35.1
2018-07-30T10:52:50.054Z,35.0
2018-07-30T10:53:51.520Z,35.0
2018-07-30T10:54:52.818Z,35.0
2018-07-30T10:55:54.178Z,35.0
2018-07-30T10:56:55.534Z,35.1
2018-07-30T10:57:56.869Z,35.1
2018-07-30T10:58:58.219Z,35.1
2018-07-30T10:59:59.573Z,35.0
2018-07-30T11:01:00.958Z,35.0
2018-07-30T11:02:02.228Z,35.0
2018-07-30T11:03:03.585Z,35.2
2018-07-30T11:04:04.930Z,35.2
2018-07-30T11:05:06.273Z,35.2
2018-07-30T11:06:07.635Z,35.4
2018-07-30T11:07:08.974Z,35.3
2018-07-30T11:08:10.328Z,35.5
2018-07-30T11:09:13.802Z,35.4
2018-07-30T11:10:12.983Z,35.5
2018-07-30T11:11:14.320Z,35.6
2018-07-30T11:12:15.670Z,35.7
2018-07-30T11:13:18.991Z,35.8
2018-07-30T11:14:20.337Z,35.9
2018-07-30T11:15:21.688Z,36.0
2018-07-30T11:16:23.039Z,36.0
2018-07-30T11:17:24.390Z,35.9
2018-07-30T11:18:25.722Z,35.8
2018-07-30T11:19:27.066Z,35.8
2018-07-30T11:20:28.418Z,35.6
2018-07-30T11:21:29.801Z,35.6
2018-07-30T11:22:31.114Z,35.6
2018-07-30T11:23:32.463Z,35.6
2018-07-30T11:24:33.804Z,35.8
2018-07-30T11:25:35.165Z,35.9
2018-07-30T11:26:36.495Z,35.8
2018-07-30T11:27:37.849Z,35.8
2018-07-30T11:28:39.198Z,35.9
2018-07-30T11:29:40.550Z,36.0
2018-07-30T11:30:41.894Z,35.9
2018-07-30T11:31:43.241Z,36.1
2018-07-30T11:32:44.580Z,36.1
2018-07-30T11:33:45.940Z,36.1
2018-07-30T11:34:47.283Z,36.1
2018-07-30T11:35:48.631Z,36.0
2018-07-30T11:36:49.979Z,35.9
2018-07-30T11:37:51.336Z,35.8
2018-07-30T11:38:52.681Z,35.8
2018-07-30T11:39:54.043Z,35.8
2018-07-30T11:40:55.378Z,35.8
2018-07-30T11:41:56.715Z,35.9
2018-07-30T11:42:58.158Z,35.9
2018-07-30T11:43:59.390Z,36.1
2018-07-30T11:45:00.730Z,36.1
2018-07-30T11:46:02.091Z,36.2
2018-07-30T11:47:03.428Z,36.2
2018-07-30T11:48:04.775Z,36.3
2018-07-30T11:49:06.124Z,36.3
2018-07-30T11:50:07.518Z,36.2
2018-07-30T11:51:08.855Z,36.1
2018-07-30T11:52:10.214Z,36.1
2018-07-30T11:53:11.561Z,36.1
2018-07-30T11:54:12.917Z,36.0
2018-07-30T11:55:14.249Z,36.0
2018-07-30T11:56:15.602Z,36.0
2018-07-30T11:57:16.946Z,36.1
2018-07-30T11:58:18.286Z,36.1
2018-07-30T11:59:19.641Z,36.2
2018-07-30T12:00:20.984Z,36.2
2018-07-30T12:01:22.370Z,36.2
2018-07-30T12:02:23.644Z,36.3
2018-07-30T12:03:25.000Z,36.3
2018-07-30T12:04:26.356Z,36.3
2018-07-30T12:05:27.705Z,36.4
2018-07-30T12:06:29.058Z,36.4
2018-07-30T12:07:30.391Z,36.4
2018-07-30T12:08:31.735Z,36.4
2018-07-30T12:09:33.088Z,36.5
2018-07-30T12:10:34.458Z,36.6
2018-07-30T12:11:35.815Z,36.6
2018-07-30T12:12:37.168Z,36.5
2018-07-30T12:13:38.593Z,36.3
2018-07-30T12:14:39.856Z,36.1
2018-07-30T12:15:41.206Z,36.1
2018-07-30T12:16:42.554Z,36.1
2018-07-30T12:17:43.895Z,36.0
2018-07-30T12:18:45.254Z,36.1
2018-07-30T12:19:46.601Z,36.1
2018-07-30T12:20:47.951Z,36.1
2018-07-30T12:21:49.332Z,36.1
2018-07-30T12:22:50.645Z,36.2
2018-07-30T12:23:51.998Z,36.2
2018-07-30T12:24:53.334Z,36.1
2018-07-30T12:25:54.679Z,35.9
2018-07-30T12:26:56.047Z,35.8
2018-07-30T12:27:57.380Z,35.8
2018-07-30T12:28:58.730Z,36.0
2018-07-30T12:30:00.100Z,36.0
2018-07-30T12:31:01.427Z,36.1
2018-07-30T12:32:02.761Z,36.0
2018-07-30T12:33:04.124Z,36.1
2018-07-30T12:34:05.466Z,36.0
2018-07-30T12:35:06.820Z,36.0
2018-07-30T12:36:08.189Z,36.0
2018-07-30T12:37:09.505Z,36.1
2018-07-30T12:38:10.856Z,36.2
2018-07-30T12:39:12.201Z,36.2
2018-07-30T12:40:13.536Z,36.2
2018-07-30T12:41:14.886Z,36.2
2018-07-30T12:42:16.239Z,36.2
2018-07-30T12:43:17.714Z,36.2
2018-07-30T12:44:19.060Z,36.1
2018-07-30T12:45:20.411Z,36.1
2018-07-30T12:46:21.755Z,36.2
2018-07-30T12:47:23.095Z,36.3
2018-07-30T12:48:24.434Z,36.4
2018-07-30T12:49:25.781Z,36.5
2018-07-30T12:50:27.293Z,36.5
2018-07-30T12:51:28.583Z,36.6
2018-07-30T12:52:29.939Z,36.6
2018-07-30T12:53:31.285Z,36.7
2018-07-30T12:54:32.631Z,36.7
2018-07-30T12:55:33.978Z,36.7
2018-07-30T12:56:35.330Z,36.7
2018-07-30T12:57:36.660Z,36.9
2018-07-30T12:58:38.009Z,36.8
2018-07-30T12:59:39.377Z,36.8
2018-07-30T13:00:40.861Z,36.9
2018-07-30T13:01:42.199Z,36.9
2018-07-30T13:02:43.596Z,36.9
2018-07-30T13:03:44.881Z,36.8
2018-07-30T13:04:46.241Z,36.8
2018-07-30T13:05:47.595Z,36.7
2018-07-30T13:06:48.951Z,36.8
2018-07-30T13:07:50.297Z,36.8
2018-07-30T13:08:51.641Z,36.7
2018-07-30T13:09:52.985Z,36.9
2018-07-30T13:10:54.331Z,36.9
2018-07-30T13:11:55.681Z,37.0
2018-07-30T13:12:57.034Z,37.0
2018-07-30T13:13:58.371Z,37.1
2018-07-30T13:14:59.728Z,37.0
2018-07-30T13:16:01.056Z,36.9
2018-07-30T13:17:02.410Z,37.1
2018-07-30T13:18:03.756Z,36.9
2018-07-30T13:19:05.108Z,37.1
2018-07-30T13:20:06.456Z,37.1
2018-07-30T13:21:07.817Z,37.0
2018-07-30T13:22:09.162Z,37.0
2018-07-30T13:23:10.492Z,36.9
2018-07-30T13:24:11.841Z,36.9
2018-07-30T13:25:13.192Z,36.9
2018-07-30T13:26:14.618Z,37.0
2018-07-30T13:27:15.986Z,36.9
2018-07-30T13:28:17.339Z,37.0
2018-07-30T13:29:18.708Z,37.0
2018-07-30T13:30:20.066Z,37.0
2018-07-30T13:31:21.401Z,37.2
2018-07-30T13:32:22.752Z,37.3
2018-07-30T13:33:24.090Z,37.3
2018-07-30T13:34:25.420Z,37.4
2018-07-30T13:35:26.764Z,37.4
2018-07-30T13:36:28.101Z,37.3